Etusivu
METAR-TAF:

METAR-TAF

Lentoasemat :

Fort Hood / Killeen, Texas, Yhdysvallat

Leveyspiiri: 31-06N, Pituuspiiri: 097-20W, korkeus merenpinnasta: 283 m

Tämänhetkinen sää

Tämä raportti tehtiin 17 minuuttia sitten, kello 00.00 UTC
Tuuli 17 kn pohjoisen/luoteesta
Lämpötila 13°C
Kosteus 94%
Ilmanpaine 1015 hPa
Näkyvyys: 4.8 km
Hajonneita pilviä 300 ft:n korkeudessa
heikkoa sadetta, utua

METAR: KHLR 080000Z AUTO 33017KT 3SM -RA BR BKN003 13/12 A2998 RMK AO2 LTG DSNT NE SLP149

Aika: 17:17 (00:17 UTC)


TAF: puuttuu

Säähavainnot ja -ennusteet yli 4000 lentoasemalta (METAR- ja TAF-raportit).

Käytössä olevat sääasemat on merkitty karttaan keltaisilla ja punaisilla pisteillä.

Aseta hiiri pisteen päälle nähdäksesi sääaseman nimen.

Klikkaa sitten nähdäksesi säähavainnot ja -ennusteet.

Kartan vaihtaminen: klikkaa mustalla rastilla varustettuja vihreitä pisteitä, niin voit zoomata sisään; viivalla varustettua vihreää pistettä, niin voit zoomata ulos tai vihreitä nuolia, niin pääset viereisille kartoille.


METAR-TAF: